sensor_id;sensor_type;location;lat;lon;timestamp;P1;durP1;ratioP1;P2;durP2;ratioP2
14778;SDS011;7481;53.750;10.570;2023-06-01T00:00:59;10.07;;;4.33;;
14778;SDS011;7481;53.750;10.570;2023-06-01T00:03:48;8.00;;;4.00;;
14778;SDS011;7481;53.750;10.570;2023-06-01T00:06:37;9.80;;;3.83;;
14778;SDS011;7481;53.750;10.570;2023-06-01T00:09:24;10.23;;;3.90;;
14778;SDS011;7481;53.750;10.570;2023-06-01T00:12:12;7.80;;;3.97;;
14778;SDS011;7481;53.750;10.570;2023-06-01T00:14:59;9.27;;;4.80;;
14778;SDS011;7481;53.750;10.570;2023-06-01T00:17:47;9.10;;;4.07;;
14778;SDS011;7481;53.750;10.570;2023-06-01T00:20:38;14.80;;;4.67;;
14778;SDS011;7481;53.750;10.570;2023-06-01T00:23:25;6.80;;;3.73;;
14778;SDS011;7481;53.750;10.570;2023-06-01T00:26:15;5.87;;;3.57;;
14778;SDS011;7481;53.750;10.570;2023-06-01T00:29:02;9.13;;;3.73;;
14778;SDS011;7481;53.750;10.570;2023-06-01T00:31:50;7.90;;;4.10;;
14778;SDS011;7481;53.750;10.570;2023-06-01T00:34:37;12.33;;;4.10;;
14778;SDS011;7481;53.750;10.570;2023-06-01T00:37:25;10.47;;;4.07;;
14778;SDS011;7481;53.750;10.570;2023-06-01T00:40:12;8.00;;;3.77;;
14778;SDS011;7481;53.750;10.570;2023-06-01T00:43:00;13.70;;;5.53;;
14778;SDS011;7481;53.750;10.570;2023-06-01T00:45:47;6.40;;;3.90;;
14778;SDS011;7481;53.750;10.570;2023-06-01T00:48:35;7.83;;;3.90;;
14778;SDS011;7481;53.750;10.570;2023-06-01T00:51:22;9.47;;;4.23;;
14778;SDS011;7481;53.750;10.570;2023-06-01T00:54:10;11.47;;;4.27;;
14778;SDS011;7481;53.750;10.570;2023-06-01T00:56:58;6.83;;;3.90;;
14778;SDS011;7481;53.750;10.570;2023-06-01T00:59:45;8.47;;;3.97;;
14778;SDS011;7481;53.750;10.570;2023-06-01T01:02:34;10.57;;;5.30;;
14778;SDS011;7481;53.750;10.570;2023-06-01T01:05:23;14.00;;;4.90;;
14778;SDS011;7481;53.750;10.570;2023-06-01T01:08:14;11.27;;;3.80;;
14778;SDS011;7481;53.750;10.570;2023-06-01T01:11:07;9.33;;;4.20;;
14778;SDS011;7481;53.750;10.570;2023-06-01T01:17:08;9.23;;;4.30;;
14778;SDS011;7481;53.750;10.570;2023-06-01T01:19:59;6.03;;;3.90;;
14778;SDS011;7481;53.750;10.570;2023-06-01T01:23:04;6.47;;;3.60;;
14778;SDS011;7481;53.750;10.570;2023-06-01T01:26:12;9.20;;;4.20;;
14778;SDS011;7481;53.750;10.570;2023-06-01T01:29:11;7.90;;;3.73;;
14778;SDS011;7481;53.750;10.570;2023-06-01T01:31:59;8.17;;;4.17;;
14778;SDS011;7481;53.750;10.570;2023-06-01T01:34:47;8.17;;;3.50;;
14778;SDS011;7481;53.750;10.570;2023-06-01T01:37:35;10.53;;;3.70;;
14778;SDS011;7481;53.750;10.570;2023-06-01T01:40:23;7.27;;;3.80;;
14778;SDS011;7481;53.750;10.570;2023-06-01T01:43:10;8.07;;;4.07;;
14778;SDS011;7481;53.750;10.570;2023-06-01T01:46:42;9.73;;;4.17;;
14778;SDS011;7481;53.750;10.570;2023-06-01T01:49:12;7.57;;;4.00;;
14778;SDS011;7481;53.750;10.570;2023-06-01T01:55:17;7.90;;;4.07;;
14778;SDS011;7481;53.750;10.570;2023-06-01T01:58:05;8.10;;;4.70;;
14778;SDS011;7481;53.750;10.570;2023-06-01T02:00:53;5.63;;;4.00;;
14778;SDS011;7481;53.750;10.570;2023-06-01T02:03:41;6.23;;;3.73;;
14778;SDS011;7481;53.750;10.570;2023-06-01T02:06:29;12.97;;;3.87;;
14778;SDS011;7481;53.750;10.570;2023-06-01T02:09:17;8.80;;;4.40;;
14778;SDS011;7481;53.750;10.570;2023-06-01T02:12:04;7.17;;;4.00;;
14778;SDS011;7481;53.750;10.570;2023-06-01T02:14:52;9.00;;;4.10;;
14778;SDS011;7481;53.750;10.570;2023-06-01T02:17:40;9.37;;;4.37;;
14778;SDS011;7481;53.750;10.570;2023-06-01T02:20:32;11.80;;;4.20;;
14778;SDS011;7481;53.750;10.570;2023-06-01T02:23:20;9.07;;;4.10;;
14778;SDS011;7481;53.750;10.570;2023-06-01T02:26:08;11.60;;;4.20;;
14778;SDS011;7481;53.750;10.570;2023-06-01T02:28:55;10.77;;;4.20;;
14778;SDS011;7481;53.750;10.570;2023-06-01T02:31:43;7.47;;;3.90;;
14778;SDS011;7481;53.750;10.570;2023-06-01T02:34:30;7.03;;;3.77;;
14778;SDS011;7481;53.750;10.570;2023-06-01T02:37:18;8.77;;;4.30;;
14778;SDS011;7481;53.750;10.570;2023-06-01T02:40:05;14.07;;;5.10;;
14778;SDS011;7481;53.750;10.570;2023-06-01T02:42:57;6.00;;;4.07;;
14778;SDS011;7481;53.750;10.570;2023-06-01T02:45:44;10.53;;;4.43;;
14778;SDS011;7481;53.750;10.570;2023-06-01T02:48:32;12.07;;;4.20;;
14778;SDS011;7481;53.750;10.570;2023-06-01T02:51:19;10.50;;;4.27;;
14778;SDS011;7481;53.750;10.570;2023-06-01T02:54:07;9.70;;;4.60;;
14778;SDS011;7481;53.750;10.570;2023-06-01T02:56:54;9.93;;;4.50;;
14778;SDS011;7481;53.750;10.570;2023-06-01T02:59:42;7.90;;;4.30;;
14778;SDS011;7481;53.750;10.570;2023-06-01T03:02:29;9.03;;;4.53;;
14778;SDS011;7481;53.750;10.570;2023-06-01T03:05:17;6.83;;;4.23;;
14778;SDS011;7481;53.750;10.570;2023-06-01T03:08:07;7.37;;;3.80;;
14778;SDS011;7481;53.750;10.570;2023-06-01T03:10:54;10.13;;;4.90;;
14778;SDS011;7481;53.750;10.570;2023-06-01T03:13:42;9.90;;;4.50;;
14778;SDS011;7481;53.750;10.570;2023-06-01T03:16:29;7.70;;;4.57;;
14778;SDS011;7481;53.750;10.570;2023-06-01T03:19:17;12.43;;;4.77;;
14778;SDS011;7481;53.750;10.570;2023-06-01T03:22:05;7.53;;;4.27;;
14778;SDS011;7481;53.750;10.570;2023-06-01T03:24:52;9.33;;;4.93;;
14778;SDS011;7481;53.750;10.570;2023-06-01T03:27:41;10.57;;;4.70;;
14778;SDS011;7481;53.750;10.570;2023-06-01T03:30:28;7.63;;;4.17;;
14778;SDS011;7481;53.750;10.570;2023-06-01T03:33:17;8.53;;;4.70;;
14778;SDS011;7481;53.750;10.570;2023-06-01T03:36:04;10.03;;;3.93;;
14778;SDS011;7481;53.750;10.570;2023-06-01T03:38:53;10.47;;;4.60;;
14778;SDS011;7481;53.750;10.570;2023-06-01T03:41:41;12.13;;;4.50;;
14778;SDS011;7481;53.750;10.570;2023-06-01T03:44:29;9.17;;;4.37;;
14778;SDS011;7481;53.750;10.570;2023-06-01T03:47:17;10.00;;;4.57;;
14778;SDS011;7481;53.750;10.570;2023-06-01T03:50:06;8.97;;;3.90;;
14778;SDS011;7481;53.750;10.570;2023-06-01T03:52:55;10.47;;;4.43;;
14778;SDS011;7481;53.750;10.570;2023-06-01T03:55:42;10.73;;;4.87;;
14778;SDS011;7481;53.750;10.570;2023-06-01T03:58:30;7.73;;;4.30;;
14778;SDS011;7481;53.750;10.570;2023-06-01T04:01:18;7.60;;;4.30;;
14778;SDS011;7481;53.750;10.570;2023-06-01T04:04:06;10.37;;;4.60;;
14778;SDS011;7481;53.750;10.570;2023-06-01T04:06:55;9.83;;;4.00;;
14778;SDS011;7481;53.750;10.570;2023-06-01T04:09:47;7.87;;;4.40;;
14778;SDS011;7481;53.750;10.570;2023-06-01T04:12:35;11.73;;;4.10;;
14778;SDS011;7481;53.750;10.570;2023-06-01T04:15:22;11.90;;;4.10;;
14778;SDS011;7481;53.750;10.570;2023-06-01T04:18:10;11.93;;;4.27;;
14778;SDS011;7481;53.750;10.570;2023-06-01T04:20:57;10.27;;;4.30;;
14778;SDS011;7481;53.750;10.570;2023-06-01T04:23:45;9.27;;;4.47;;
14778;SDS011;7481;53.750;10.570;2023-06-01T04:26:32;10.10;;;4.60;;
14778;SDS011;7481;53.750;10.570;2023-06-01T04:29:20;13.27;;;5.32;;
14778;SDS011;7481;53.750;10.570;2023-06-01T04:32:07;9.33;;;5.33;;
14778;SDS011;7481;53.750;10.570;2023-06-01T04:34:55;10.70;;;4.20;;
14778;SDS011;7481;53.750;10.570;2023-06-01T04:37:43;10.00;;;5.00;;
14778;SDS011;7481;53.750;10.570;2023-06-01T04:40:31;10.30;;;4.73;;
14778;SDS011;7481;53.750;10.570;2023-06-01T04:43:19;10.87;;;4.67;;
14778;SDS011;7481;53.750;10.570;2023-06-01T04:46:07;16.07;;;4.67;;
14778;SDS011;7481;53.750;10.570;2023-06-01T04:48:54;12.17;;;4.73;;
14778;SDS011;7481;53.750;10.570;2023-06-01T04:51:44;11.10;;;4.37;;
14778;SDS011;7481;53.750;10.570;2023-06-01T04:54:31;12.23;;;4.43;;
14778;SDS011;7481;53.750;10.570;2023-06-01T04:57:18;9.70;;;4.67;;
14778;SDS011;7481;53.750;10.570;2023-06-01T05:00:06;13.03;;;5.40;;
14778;SDS011;7481;53.750;10.570;2023-06-01T05:03:00;12.00;;;4.47;;
14778;SDS011;7481;53.750;10.570;2023-06-01T05:05:49;9.73;;;4.00;;
14778;SDS011;7481;53.750;10.570;2023-06-01T05:08:40;11.73;;;4.60;;
14778;SDS011;7481;53.750;10.570;2023-06-01T05:11:28;16.50;;;4.87;;
14778;SDS011;7481;53.750;10.570;2023-06-01T05:14:15;10.37;;;4.33;;
14778;SDS011;7481;53.750;10.570;2023-06-01T05:17:03;11.73;;;4.40;;
14778;SDS011;7481;53.750;10.570;2023-06-01T05:19:50;12.27;;;3.87;;
14778;SDS011;7481;53.750;10.570;2023-06-01T05:22:38;8.40;;;4.10;;
14778;SDS011;7481;53.750;10.570;2023-06-01T05:25:26;9.67;;;4.27;;
14778;SDS011;7481;53.750;10.570;2023-06-01T05:28:13;9.67;;;4.30;;
14778;SDS011;7481;53.750;10.570;2023-06-01T05:31:01;9.80;;;4.40;;
14778;SDS011;7481;53.750;10.570;2023-06-01T05:33:50;11.07;;;4.63;;
14778;SDS011;7481;53.750;10.570;2023-06-01T05:36:38;8.23;;;4.40;;
14778;SDS011;7481;53.750;10.570;2023-06-01T05:39:25;9.90;;;4.07;;
14778;SDS011;7481;53.750;10.570;2023-06-01T05:42:14;9.50;;;4.40;;
14778;SDS011;7481;53.750;10.570;2023-06-01T05:45:01;8.90;;;4.80;;
14778;SDS011;7481;53.750;10.570;2023-06-01T05:47:49;9.60;;;4.40;;
14778;SDS011;7481;53.750;10.570;2023-06-01T05:50:36;12.60;;;5.40;;
14778;SDS011;7481;53.750;10.570;2023-06-01T05:53:24;8.70;;;4.30;;
14778;SDS011;7481;53.750;10.570;2023-06-01T05:56:11;11.20;;;4.67;;
14778;SDS011;7481;53.750;10.570;2023-06-01T05:58:59;8.17;;;3.90;;
14778;SDS011;7481;53.750;10.570;2023-06-01T06:01:47;8.27;;;4.07;;
14778;SDS011;7481;53.750;10.570;2023-06-01T06:04:35;9.87;;;3.97;;
14778;SDS011;7481;53.750;10.570;2023-06-01T06:07:22;10.37;;;4.67;;
14778;SDS011;7481;53.750;10.570;2023-06-01T06:10:11;7.50;;;4.03;;
14778;SDS011;7481;53.750;10.570;2023-06-01T06:12:58;11.93;;;4.50;;
14778;SDS011;7481;53.750;10.570;2023-06-01T06:15:46;10.47;;;4.43;;
14778;SDS011;7481;53.750;10.570;2023-06-01T06:18:33;10.53;;;4.23;;
14778;SDS011;7481;53.750;10.570;2023-06-01T06:21:21;7.07;;;4.00;;
14778;SDS011;7481;53.750;10.570;2023-06-01T06:24:08;11.83;;;4.23;;
14778;SDS011;7481;53.750;10.570;2023-06-01T06:26:56;8.87;;;3.90;;
14778;SDS011;7481;53.750;10.570;2023-06-01T06:29:43;8.83;;;4.43;;
14778;SDS011;7481;53.750;10.570;2023-06-01T06:32:31;7.87;;;3.70;;
14778;SDS011;7481;53.750;10.570;2023-06-01T06:35:18;6.73;;;3.87;;
14778;SDS011;7481;53.750;10.570;2023-06-01T06:38:06;9.40;;;4.17;;
14778;SDS011;7481;53.750;10.570;2023-06-01T06:40:54;7.23;;;3.70;;
14778;SDS011;7481;53.750;10.570;2023-06-01T06:43:43;9.70;;;4.17;;
14778;SDS011;7481;53.750;10.570;2023-06-01T06:46:31;8.13;;;3.83;;
14778;SDS011;7481;53.750;10.570;2023-06-01T06:49:18;13.43;;;4.23;;
14778;SDS011;7481;53.750;10.570;2023-06-01T06:52:06;8.17;;;4.17;;
14778;SDS011;7481;53.750;10.570;2023-06-01T06:54:56;7.00;;;3.17;;
14778;SDS011;7481;53.750;10.570;2023-06-01T06:57:44;8.40;;;3.93;;
14778;SDS011;7481;53.750;10.570;2023-06-01T07:00:31;9.93;;;3.97;;
14778;SDS011;7481;53.750;10.570;2023-06-01T07:03:19;12.03;;;4.30;;
14778;SDS011;7481;53.750;10.570;2023-06-01T07:06:07;8.67;;;3.27;;
14778;SDS011;7481;53.750;10.570;2023-06-01T07:08:54;8.33;;;3.50;;
14778;SDS011;7481;53.750;10.570;2023-06-01T07:11:42;5.37;;;2.83;;
14778;SDS011;7481;53.750;10.570;2023-06-01T07:14:31;7.87;;;4.00;;
14778;SDS011;7481;53.750;10.570;2023-06-01T07:17:18;9.03;;;3.67;;
14778;SDS011;7481;53.750;10.570;2023-06-01T07:20:06;11.07;;;3.90;;
14778;SDS011;7481;53.750;10.570;2023-06-01T07:22:55;8.57;;;2.95;;
14778;SDS011;7481;53.750;10.570;2023-06-01T07:25:43;7.22;;;3.17;;
14778;SDS011;7481;53.750;10.570;2023-06-01T07:28:30;9.73;;;3.35;;
14778;SDS011;7481;53.750;10.570;2023-06-01T07:31:19;9.63;;;3.73;;
14778;SDS011;7481;53.750;10.570;2023-06-01T07:34:07;11.47;;;3.90;;
14778;SDS011;7481;53.750;10.570;2023-06-01T07:36:54;7.03;;;2.73;;
14778;SDS011;7481;53.750;10.570;2023-06-01T07:40:02;7.67;;;3.40;;
14778;SDS011;7481;53.750;10.570;2023-06-01T07:42:54;8.83;;;3.00;;
14778;SDS011;7481;53.750;10.570;2023-06-01T07:45:41;5.40;;;2.70;;
14778;SDS011;7481;53.750;10.570;2023-06-01T07:48:29;6.93;;;3.40;;
14778;SDS011;7481;53.750;10.570;2023-06-01T07:51:22;7.90;;;2.70;;
14778;SDS011;7481;53.750;10.570;2023-06-01T07:54:09;9.17;;;2.70;;
14778;SDS011;7481;53.750;10.570;2023-06-01T07:56:57;8.90;;;2.60;;
14778;SDS011;7481;53.750;10.570;2023-06-01T07:59:45;7.43;;;2.43;;
14778;SDS011;7481;53.750;10.570;2023-06-01T08:02:32;7.37;;;2.30;;
14778;SDS011;7481;53.750;10.570;2023-06-01T08:05:20;6.67;;;2.40;;
14778;SDS011;7481;53.750;10.570;2023-06-01T08:08:08;4.93;;;2.50;;
14778;SDS011;7481;53.750;10.570;2023-06-01T08:10:56;6.03;;;2.77;;
14778;SDS011;7481;53.750;10.570;2023-06-01T08:13:44;8.07;;;2.40;;
14778;SDS011;7481;53.750;10.570;2023-06-01T08:16:35;4.10;;;2.57;;
14778;SDS011;7481;53.750;10.570;2023-06-01T08:19:22;6.60;;;2.40;;
14778;SDS011;7481;53.750;10.570;2023-06-01T08:22:10;8.37;;;2.60;;
14778;SDS011;7481;53.750;10.570;2023-06-01T08:24:58;14.40;;;3.00;;
14778;SDS011;7481;53.750;10.570;2023-06-01T08:27:46;7.40;;;3.23;;
14778;SDS011;7481;53.750;10.570;2023-06-01T08:30:34;9.37;;;3.07;;
14778;SDS011;7481;53.750;10.570;2023-06-01T08:33:21;5.85;;;2.63;;
14778;SDS011;7481;53.750;10.570;2023-06-01T08:36:08;5.40;;;2.27;;
14778;SDS011;7481;53.750;10.570;2023-06-01T08:38:56;8.23;;;2.80;;
14778;SDS011;7481;53.750;10.570;2023-06-01T08:41:45;5.60;;;2.72;;
14778;SDS011;7481;53.750;10.570;2023-06-01T08:44:38;12.63;;;2.85;;
14778;SDS011;7481;53.750;10.570;2023-06-01T08:47:26;7.05;;;2.67;;
14778;SDS011;7481;53.750;10.570;2023-06-01T08:50:14;3.95;;;1.80;;
14778;SDS011;7481;53.750;10.570;2023-06-01T08:53:03;9.40;;;2.30;;
14778;SDS011;7481;53.750;10.570;2023-06-01T08:55:52;6.38;;;2.47;;
14778;SDS011;7481;53.750;10.570;2023-06-01T08:58:40;6.78;;;2.60;;
14778;SDS011;7481;53.750;10.570;2023-06-01T09:01:28;5.78;;;3.03;;
14778;SDS011;7481;53.750;10.570;2023-06-01T09:04:15;5.53;;;2.88;;
14778;SDS011;7481;53.750;10.570;2023-06-01T09:07:04;4.50;;;2.60;;
14778;SDS011;7481;53.750;10.570;2023-06-01T09:09:51;8.90;;;2.70;;
14778;SDS011;7481;53.750;10.570;2023-06-01T09:12:39;6.95;;;2.78;;
14778;SDS011;7481;53.750;10.570;2023-06-01T09:15:49;4.83;;;2.57;;
14778;SDS011;7481;53.750;10.570;2023-06-01T09:18:52;7.57;;;2.65;;
14778;SDS011;7481;53.750;10.570;2023-06-01T09:21:40;4.05;;;2.38;;
14778;SDS011;7481;53.750;10.570;2023-06-01T09:24:27;10.32;;;2.58;;
14778;SDS011;7481;53.750;10.570;2023-06-01T09:27:15;6.07;;;2.67;;
14778;SDS011;7481;53.750;10.570;2023-06-01T09:30:02;6.40;;;3.00;;
14778;SDS011;7481;53.750;10.570;2023-06-01T09:32:50;5.15;;;2.55;;
14778;SDS011;7481;53.750;10.570;2023-06-01T09:35:40;7.35;;;2.65;;
14778;SDS011;7481;53.750;10.570;2023-06-01T09:38:28;6.50;;;2.60;;
14778;SDS011;7481;53.750;10.570;2023-06-01T09:41:17;6.53;;;2.83;;
14778;SDS011;7481;53.750;10.570;2023-06-01T09:44:06;7.68;;;2.95;;
14778;SDS011;7481;53.750;10.570;2023-06-01T09:46:55;8.07;;;2.90;;
14778;SDS011;7481;53.750;10.570;2023-06-01T09:49:43;8.10;;;3.00;;
14778;SDS011;7481;53.750;10.570;2023-06-01T09:52:31;6.88;;;3.13;;
14778;SDS011;7481;53.750;10.570;2023-06-01T09:55:18;6.72;;;3.15;;
14778;SDS011;7481;53.750;10.570;2023-06-01T09:58:18;8.45;;;2.85;;
14778;SDS011;7481;53.750;10.570;2023-06-01T10:01:07;11.18;;;3.63;;
14778;SDS011;7481;53.750;10.570;2023-06-01T10:03:55;8.13;;;2.80;;
14778;SDS011;7481;53.750;10.570;2023-06-01T10:06:43;6.82;;;2.90;;
14778;SDS011;7481;53.750;10.570;2023-06-01T10:09:31;8.45;;;2.83;;
14778;SDS011;7481;53.750;10.570;2023-06-01T10:12:19;8.60;;;3.00;;
14778;SDS011;7481;53.750;10.570;2023-06-01T10:15:07;6.07;;;2.63;;
14778;SDS011;7481;53.750;10.570;2023-06-01T10:18:06;7.05;;;2.90;;
14778;SDS011;7481;53.750;10.570;2023-06-01T10:20:54;8.13;;;2.72;;
14778;SDS011;7481;53.750;10.570;2023-06-01T10:23:42;8.73;;;3.00;;
14778;SDS011;7481;53.750;10.570;2023-06-01T10:26:30;5.55;;;3.05;;
14778;SDS011;7481;53.750;10.570;2023-06-01T10:29:21;5.75;;;2.88;;
14778;SDS011;7481;53.750;10.570;2023-06-01T10:35:58;8.15;;;2.80;;
14778;SDS011;7481;53.750;10.570;2023-06-01T10:38:25;5.95;;;2.60;;
14778;SDS011;7481;53.750;10.570;2023-06-01T10:41:26;5.97;;;2.90;;
14778;SDS011;7481;53.750;10.570;2023-06-01T10:50:27;5.80;;;3.00;;
14778;SDS011;7481;53.750;10.570;2023-06-01T10:53:25;6.53;;;2.78;;
14778;SDS011;7481;53.750;10.570;2023-06-01T10:56:20;7.88;;;3.22;;
14778;SDS011;7481;53.750;10.570;2023-06-01T10:59:10;5.55;;;2.70;;
14778;SDS011;7481;53.750;10.570;2023-06-01T11:02:03;5.50;;;2.88;;
14778;SDS011;7481;53.750;10.570;2023-06-01T11:04:52;7.43;;;2.70;;
14778;SDS011;7481;53.750;10.570;2023-06-01T11:07:39;10.88;;;3.33;;
14778;SDS011;7481;53.750;10.570;2023-06-01T11:13:36;8.13;;;2.40;;
14778;SDS011;7481;53.750;10.570;2023-06-01T11:19:17;7.50;;;4.82;;
14778;SDS011;7481;53.750;10.570;2023-06-01T11:22:07;8.27;;;3.28;;
14778;SDS011;7481;53.750;10.570;2023-06-01T11:24:56;7.88;;;2.83;;
14778;SDS011;7481;53.750;10.570;2023-06-01T11:27:45;6.40;;;2.65;;
14778;SDS011;7481;53.750;10.570;2023-06-01T11:30:34;6.45;;;2.80;;
14778;SDS011;7481;53.750;10.570;2023-06-01T11:33:22;12.30;;;4.97;;
14778;SDS011;7481;53.750;10.570;2023-06-01T11:36:10;10.02;;;3.55;;
14778;SDS011;7481;53.750;10.570;2023-06-01T11:39:01;8.20;;;3.08;;
14778;SDS011;7481;53.750;10.570;2023-06-01T11:42:14;8.73;;;2.78;;
14778;SDS011;7481;53.750;10.570;2023-06-01T11:45:02;8.43;;;2.88;;
14778;SDS011;7481;53.750;10.570;2023-06-01T11:47:51;10.38;;;2.67;;
14778;SDS011;7481;53.750;10.570;2023-06-01T11:50:45;9.20;;;2.63;;
14778;SDS011;7481;53.750;10.570;2023-06-01T11:53:33;6.75;;;2.20;;
14778;SDS011;7481;53.750;10.570;2023-06-01T11:56:20;4.05;;;1.95;;
14778;SDS011;7481;53.750;10.570;2023-06-01T11:59:08;8.82;;;2.58;;
14778;SDS011;7481;53.750;10.570;2023-06-01T12:01:56;7.20;;;2.33;;
14778;SDS011;7481;53.750;10.570;2023-06-01T12:04:43;4.93;;;2.45;;
14778;SDS011;7481;53.750;10.570;2023-06-01T12:07:45;6.80;;;2.70;;
14778;SDS011;7481;53.750;10.570;2023-06-01T12:10:33;6.35;;;2.38;;
14778;SDS011;7481;53.750;10.570;2023-06-01T12:13:20;9.80;;;2.92;;
14778;SDS011;7481;53.750;10.570;2023-06-01T12:16:08;6.30;;;2.75;;
14778;SDS011;7481;53.750;10.570;2023-06-01T12:19:11;8.20;;;2.83;;
14778;SDS011;7481;53.750;10.570;2023-06-01T12:22:02;5.50;;;2.50;;
14778;SDS011;7481;53.750;10.570;2023-06-01T12:24:50;6.25;;;2.47;;
14778;SDS011;7481;53.750;10.570;2023-06-01T12:27:37;10.60;;;3.20;;
14778;SDS011;7481;53.750;10.570;2023-06-01T12:30:26;7.70;;;2.92;;
14778;SDS011;7481;53.750;10.570;2023-06-01T12:36:35;5.20;;;2.47;;
14778;SDS011;7481;53.750;10.570;2023-06-01T12:39:33;6.03;;;2.20;;
14778;SDS011;7481;53.750;10.570;2023-06-01T12:42:37;8.45;;;2.40;;
14778;SDS011;7481;53.750;10.570;2023-06-01T12:45:25;5.80;;;2.47;;
14778;SDS011;7481;53.750;10.570;2023-06-01T12:48:29;7.03;;;2.75;;
14778;SDS011;7481;53.750;10.570;2023-06-01T12:51:17;8.10;;;2.88;;
14778;SDS011;7481;53.750;10.570;2023-06-01T12:54:05;6.32;;;2.58;;
14778;SDS011;7481;53.750;10.570;2023-06-01T12:56:52;7.50;;;2.17;;
14778;SDS011;7481;53.750;10.570;2023-06-01T12:59:40;7.00;;;2.85;;
14778;SDS011;7481;53.750;10.570;2023-06-01T13:02:28;7.95;;;2.40;;
14778;SDS011;7481;53.750;10.570;2023-06-01T13:05:16;6.03;;;2.72;;
14778;SDS011;7481;53.750;10.570;2023-06-01T13:08:04;9.95;;;2.35;;
14778;SDS011;7481;53.750;10.570;2023-06-01T13:10:51;6.30;;;2.13;;
14778;SDS011;7481;53.750;10.570;2023-06-01T13:13:38;6.70;;;2.28;;
14778;SDS011;7481;53.750;10.570;2023-06-01T13:16:29;12.43;;;2.30;;
14778;SDS011;7481;53.750;10.570;2023-06-01T13:19:17;8.27;;;2.30;;
14778;SDS011;7481;53.750;10.570;2023-06-01T13:22:06;6.47;;;2.83;;
14778;SDS011;7481;53.750;10.570;2023-06-01T13:24:54;5.95;;;1.85;;
14778;SDS011;7481;53.750;10.570;2023-06-01T13:27:51;6.95;;;2.40;;
14778;SDS011;7481;53.750;10.570;2023-06-01T13:30:38;15.43;;;2.83;;
14778;SDS011;7481;53.750;10.570;2023-06-01T13:33:26;10.38;;;2.75;;
14778;SDS011;7481;53.750;10.570;2023-06-01T13:36:13;7.50;;;2.50;;
14778;SDS011;7481;53.750;10.570;2023-06-01T13:39:01;8.25;;;2.38;;
14778;SDS011;7481;53.750;10.570;2023-06-01T13:41:51;9.88;;;2.30;;
14778;SDS011;7481;53.750;10.570;2023-06-01T13:44:38;10.20;;;2.95;;
14778;SDS011;7481;53.750;10.570;2023-06-01T13:47:26;6.18;;;2.35;;
14778;SDS011;7481;53.750;10.570;2023-06-01T13:50:14;7.65;;;2.38;;
14778;SDS011;7481;53.750;10.570;2023-06-01T13:53:01;9.05;;;2.50;;
14778;SDS011;7481;53.750;10.570;2023-06-01T13:55:51;8.50;;;2.53;;
14778;SDS011;7481;53.750;10.570;2023-06-01T13:58:39;4.90;;;2.20;;
14778;SDS011;7481;53.750;10.570;2023-06-01T14:01:26;8.73;;;2.55;;
14778;SDS011;7481;53.750;10.570;2023-06-01T14:04:14;5.68;;;2.17;;
14778;SDS011;7481;53.750;10.570;2023-06-01T14:07:01;11.60;;;2.80;;
14778;SDS011;7481;53.750;10.570;2023-06-01T14:09:48;7.35;;;2.30;;
14778;SDS011;7481;53.750;10.570;2023-06-01T14:12:36;11.85;;;2.90;;
14778;SDS011;7481;53.750;10.570;2023-06-01T14:15:23;9.75;;;3.40;;
14778;SDS011;7481;53.750;10.570;2023-06-01T14:18:11;7.22;;;2.50;;
14778;SDS011;7481;53.750;10.570;2023-06-01T14:20:59;8.45;;;2.47;;
14778;SDS011;7481;53.750;10.570;2023-06-01T14:23:47;6.28;;;2.28;;
14778;SDS011;7481;53.750;10.570;2023-06-01T14:26:34;5.68;;;2.53;;
14778;SDS011;7481;53.750;10.570;2023-06-01T14:29:22;5.60;;;2.00;;
14778;SDS011;7481;53.750;10.570;2023-06-01T14:32:09;8.43;;;2.00;;
14778;SDS011;7481;53.750;10.570;2023-06-01T14:34:57;9.07;;;2.38;;
14778;SDS011;7481;53.750;10.570;2023-06-01T14:37:44;9.45;;;2.95;;
14778;SDS011;7481;53.750;10.570;2023-06-01T14:40:35;10.27;;;2.42;;
14778;SDS011;7481;53.750;10.570;2023-06-01T14:43:23;7.38;;;2.30;;
14778;SDS011;7481;53.750;10.570;2023-06-01T14:46:11;8.13;;;2.60;;
14778;SDS011;7481;53.750;10.570;2023-06-01T14:48:58;9.40;;;2.50;;
14778;SDS011;7481;53.750;10.570;2023-06-01T14:51:48;7.63;;;2.53;;
14778;SDS011;7481;53.750;10.570;2023-06-01T14:54:36;7.97;;;2.70;;
14778;SDS011;7481;53.750;10.570;2023-06-01T14:57:24;7.10;;;2.75;;
14778;SDS011;7481;53.750;10.570;2023-06-01T15:00:11;6.15;;;2.50;;
14778;SDS011;7481;53.750;10.570;2023-06-01T15:02:59;7.40;;;2.50;;
14778;SDS011;7481;53.750;10.570;2023-06-01T15:05:47;8.75;;;2.40;;
14778;SDS011;7481;53.750;10.570;2023-06-01T15:08:34;8.90;;;2.60;;
14778;SDS011;7481;53.750;10.570;2023-06-01T15:11:22;8.55;;;2.50;;
14778;SDS011;7481;53.750;10.570;2023-06-01T15:14:09;9.48;;;2.75;;
14778;SDS011;7481;53.750;10.570;2023-06-01T15:16:56;11.02;;;2.47;;
14778;SDS011;7481;53.750;10.570;2023-06-01T15:19:44;6.50;;;2.83;;
14778;SDS011;7481;53.750;10.570;2023-06-01T15:22:32;9.50;;;3.20;;
14778;SDS011;7481;53.750;10.570;2023-06-01T15:25:23;8.50;;;2.75;;
14778;SDS011;7481;53.750;10.570;2023-06-01T15:28:10;9.55;;;2.78;;
14778;SDS011;7481;53.750;10.570;2023-06-01T15:30:58;7.60;;;2.30;;
14778;SDS011;7481;53.750;10.570;2023-06-01T15:33:46;15.90;;;3.10;;
14778;SDS011;7481;53.750;10.570;2023-06-01T15:36:33;7.45;;;2.70;;
14778;SDS011;7481;53.750;10.570;2023-06-01T15:39:21;19.27;;;3.75;;
14778;SDS011;7481;53.750;10.570;2023-06-01T15:42:09;8.30;;;2.58;;
14778;SDS011;7481;53.750;10.570;2023-06-01T15:44:57;9.73;;;2.42;;
14778;SDS011;7481;53.750;10.570;2023-06-01T15:47:46;8.18;;;2.97;;
14778;SDS011;7481;53.750;10.570;2023-06-01T15:50:34;10.25;;;4.00;;
14778;SDS011;7481;53.750;10.570;2023-06-01T15:53:26;10.13;;;4.85;;
14778;SDS011;7481;53.750;10.570;2023-06-01T15:56:13;13.23;;;3.65;;
14778;SDS011;7481;53.750;10.570;2023-06-01T15:59:00;13.45;;;3.50;;
14778;SDS011;7481;53.750;10.570;2023-06-01T16:01:48;9.13;;;3.03;;
14778;SDS011;7481;53.750;10.570;2023-06-01T16:04:35;6.38;;;2.67;;
14778;SDS011;7481;53.750;10.570;2023-06-01T16:07:23;16.67;;;3.65;;
14778;SDS011;7481;53.750;10.570;2023-06-01T16:10:10;17.48;;;2.90;;
14778;SDS011;7481;53.750;10.570;2023-06-01T16:12:59;12.90;;;3.10;;
14778;SDS011;7481;53.750;10.570;2023-06-01T16:15:47;11.70;;;4.63;;
14778;SDS011;7481;53.750;10.570;2023-06-01T16:18:35;11.23;;;4.93;;
14778;SDS011;7481;53.750;10.570;2023-06-01T16:21:23;9.13;;;2.95;;
14778;SDS011;7481;53.750;10.570;2023-06-01T16:24:10;11.27;;;3.65;;
14778;SDS011;7481;53.750;10.570;2023-06-01T16:26:58;11.30;;;4.10;;
14778;SDS011;7481;53.750;10.570;2023-06-01T16:29:45;9.80;;;3.47;;
14778;SDS011;7481;53.750;10.570;2023-06-01T16:32:33;10.57;;;3.55;;
14778;SDS011;7481;53.750;10.570;2023-06-01T16:35:21;5.90;;;2.65;;
14778;SDS011;7481;53.750;10.570;2023-06-01T16:38:08;12.63;;;3.22;;
14778;SDS011;7481;53.750;10.570;2023-06-01T16:40:56;13.45;;;3.22;;
14778;SDS011;7481;53.750;10.570;2023-06-01T16:43:43;13.30;;;4.28;;
14778;SDS011;7481;53.750;10.570;2023-06-01T16:46:33;13.57;;;4.82;;
14778;SDS011;7481;53.750;10.570;2023-06-01T16:49:21;16.38;;;4.28;;
14778;SDS011;7481;53.750;10.570;2023-06-01T16:52:08;14.25;;;3.95;;
14778;SDS011;7481;53.750;10.570;2023-06-01T16:54:56;12.00;;;3.53;;
14778;SDS011;7481;53.750;10.570;2023-06-01T16:57:44;13.77;;;3.38;;
14778;SDS011;7481;53.750;10.570;2023-06-01T17:00:31;10.93;;;3.40;;
14778;SDS011;7481;53.750;10.570;2023-06-01T17:03:19;10.10;;;2.78;;
14778;SDS011;7481;53.750;10.570;2023-06-01T17:06:07;12.75;;;3.05;;
14778;SDS011;7481;53.750;10.570;2023-06-01T17:08:54;11.27;;;3.30;;
14778;SDS011;7481;53.750;10.570;2023-06-01T17:11:44;12.43;;;3.35;;
14778;SDS011;7481;53.750;10.570;2023-06-01T17:14:31;12.55;;;2.70;;
14778;SDS011;7481;53.750;10.570;2023-06-01T17:17:19;12.40;;;3.10;;